sensor_id;sensor_type;location;lat;lon;timestamp;P1;durP1;ratioP1;P2;durP2;ratioP2
76955;SDS011;65894;53.206;-6.108;2022-12-07T17:44:01;7.63;;;1.27;;
76955;SDS011;65894;53.206;-6.108;2022-12-07T17:48:45;7.90;;;1.20;;
76955;SDS011;65894;53.206;-6.108;2022-12-07T17:51:10;3.92;;;1.20;;
76955;SDS011;65894;53.206;-6.108;2022-12-07T17:53:54;5.85;;;1.13;;
76955;SDS011;65894;53.206;-6.108;2022-12-07T17:56:19;5.70;;;1.30;;
76955;SDS011;65894;53.206;-6.108;2022-12-07T17:58:57;6.90;;;1.58;;
76955;SDS011;65894;53.206;-6.108;2022-12-07T18:01:22;4.57;;;1.40;;
76955;SDS011;65894;53.206;-6.108;2022-12-07T18:03:48;8.27;;;1.60;;
76955;SDS011;65894;53.206;-6.108;2022-12-07T18:06:13;5.68;;;1.40;;
76955;SDS011;65894;53.206;-6.108;2022-12-07T18:08:39;6.05;;;1.55;;
76955;SDS011;65894;53.206;-6.108;2022-12-07T18:11:05;6.13;;;1.48;;
76955;SDS011;65894;53.206;-6.108;2022-12-07T18:13:34;5.97;;;1.30;;
76955;SDS011;65894;53.206;-6.108;2022-12-07T18:16:00;6.75;;;1.40;;
76955;SDS011;65894;53.206;-6.108;2022-12-07T18:18:26;6.57;;;1.73;;
76955;SDS011;65894;53.206;-6.108;2022-12-07T18:20:52;7.78;;;1.42;;
76955;SDS011;65894;53.206;-6.108;2022-12-07T18:23:17;6.00;;;1.48;;
76955;SDS011;65894;53.206;-6.108;2022-12-07T18:25:51;7.00;;;1.50;;
76955;SDS011;65894;53.206;-6.108;2022-12-07T18:28:17;9.07;;;2.00;;
76955;SDS011;65894;53.206;-6.108;2022-12-07T18:30:43;5.57;;;1.42;;
76955;SDS011;65894;53.206;-6.108;2022-12-07T18:33:18;8.55;;;1.27;;
76955;SDS011;65894;53.206;-6.108;2022-12-07T18:35:45;5.05;;;1.40;;
76955;SDS011;65894;53.206;-6.108;2022-12-07T18:38:12;8.45;;;1.70;;
76955;SDS011;65894;53.206;-6.108;2022-12-07T18:40:39;5.90;;;1.50;;
76955;SDS011;65894;53.206;-6.108;2022-12-07T18:43:06;7.88;;;1.50;;
76955;SDS011;65894;53.206;-6.108;2022-12-07T18:45:36;8.47;;;1.60;;
76955;SDS011;65894;53.206;-6.108;2022-12-07T18:48:02;5.70;;;1.33;;
76955;SDS011;65894;53.206;-6.108;2022-12-07T18:50:28;8.07;;;1.60;;
76955;SDS011;65894;53.206;-6.108;2022-12-07T18:52:58;7.22;;;1.40;;
76955;SDS011;65894;53.206;-6.108;2022-12-07T18:55:27;5.20;;;1.40;;
76955;SDS011;65894;53.206;-6.108;2022-12-07T18:57:54;6.68;;;1.38;;
76955;SDS011;65894;53.206;-6.108;2022-12-07T19:00:20;6.32;;;1.60;;
76955;SDS011;65894;53.206;-6.108;2022-12-07T19:02:48;8.60;;;1.40;;
76955;SDS011;65894;53.206;-6.108;2022-12-07T19:05:14;5.88;;;1.38;;
76955;SDS011;65894;53.206;-6.108;2022-12-07T19:07:40;6.65;;;1.42;;
76955;SDS011;65894;53.206;-6.108;2022-12-07T19:10:06;6.75;;;1.38;;
76955;SDS011;65894;53.206;-6.108;2022-12-07T19:12:32;5.68;;;1.63;;
76955;SDS011;65894;53.206;-6.108;2022-12-07T19:14:58;4.78;;;1.30;;
76955;SDS011;65894;53.206;-6.108;2022-12-07T19:17:24;7.60;;;1.65;;
76955;SDS011;65894;53.206;-6.108;2022-12-07T19:19:50;8.45;;;1.40;;
76955;SDS011;65894;53.206;-6.108;2022-12-07T19:22:16;5.30;;;0.98;;
76955;SDS011;65894;53.206;-6.108;2022-12-07T19:24:43;6.40;;;1.35;;
76955;SDS011;65894;53.206;-6.108;2022-12-07T19:27:12;3.78;;;1.20;;
76955;SDS011;65894;53.206;-6.108;2022-12-07T19:29:39;7.53;;;1.65;;
76955;SDS011;65894;53.206;-6.108;2022-12-07T19:32:05;7.30;;;1.73;;
76955;SDS011;65894;53.206;-6.108;2022-12-07T19:34:34;7.47;;;1.40;;
76955;SDS011;65894;53.206;-6.108;2022-12-07T19:37:04;9.55;;;1.52;;
76955;SDS011;65894;53.206;-6.108;2022-12-07T19:39:30;9.63;;;1.30;;
76955;SDS011;65894;53.206;-6.108;2022-12-07T19:41:56;7.90;;;1.25;;
76955;SDS011;65894;53.206;-6.108;2022-12-07T19:44:23;9.77;;;1.70;;
76955;SDS011;65894;53.206;-6.108;2022-12-07T19:46:50;11.38;;;1.85;;
76955;SDS011;65894;53.206;-6.108;2022-12-07T19:49:19;12.68;;;1.65;;
76955;SDS011;65894;53.206;-6.108;2022-12-07T19:51:46;10.18;;;1.98;;
76955;SDS011;65894;53.206;-6.108;2022-12-07T19:54:14;7.20;;;1.45;;
76955;SDS011;65894;53.206;-6.108;2022-12-07T19:56:42;10.13;;;1.40;;
76955;SDS011;65894;53.206;-6.108;2022-12-07T19:59:08;10.07;;;1.63;;
76955;SDS011;65894;53.206;-6.108;2022-12-07T20:01:35;7.53;;;1.42;;
76955;SDS011;65894;53.206;-6.108;2022-12-07T20:04:03;6.88;;;1.40;;
76955;SDS011;65894;53.206;-6.108;2022-12-07T20:06:30;9.07;;;1.35;;
76955;SDS011;65894;53.206;-6.108;2022-12-07T20:08:56;5.80;;;1.30;;
76955;SDS011;65894;53.206;-6.108;2022-12-07T20:11:22;6.00;;;1.58;;
76955;SDS011;65894;53.206;-6.108;2022-12-07T20:14:07;6.00;;;1.40;;
76955;SDS011;65894;53.206;-6.108;2022-12-07T20:16:34;7.32;;;1.50;;
76955;SDS011;65894;53.206;-6.108;2022-12-07T20:19:00;5.63;;;1.50;;
76955;SDS011;65894;53.206;-6.108;2022-12-07T20:21:26;5.13;;;1.30;;
76955;SDS011;65894;53.206;-6.108;2022-12-07T20:23:52;7.30;;;1.30;;
76955;SDS011;65894;53.206;-6.108;2022-12-07T20:26:20;5.03;;;1.75;;
76955;SDS011;65894;53.206;-6.108;2022-12-07T20:28:46;5.50;;;1.40;;
76955;SDS011;65894;53.206;-6.108;2022-12-07T20:31:12;3.72;;;1.27;;
76955;SDS011;65894;53.206;-6.108;2022-12-07T20:33:39;4.20;;;1.30;;
76955;SDS011;65894;53.206;-6.108;2022-12-07T20:36:05;12.63;;;1.80;;
76955;SDS011;65894;53.206;-6.108;2022-12-07T20:38:33;8.38;;;1.48;;
76955;SDS011;65894;53.206;-6.108;2022-12-07T20:40:59;4.82;;;1.20;;
76955;SDS011;65894;53.206;-6.108;2022-12-07T20:43:26;5.00;;;1.38;;
76955;SDS011;65894;53.206;-6.108;2022-12-07T20:45:53;3.83;;;1.20;;
76955;SDS011;65894;53.206;-6.108;2022-12-07T20:48:19;5.50;;;1.27;;
76955;SDS011;65894;53.206;-6.108;2022-12-07T20:50:45;5.28;;;1.10;;
76955;SDS011;65894;53.206;-6.108;2022-12-07T20:53:11;9.80;;;1.45;;
76955;SDS011;65894;53.206;-6.108;2022-12-07T20:55:36;5.70;;;1.25;;
76955;SDS011;65894;53.206;-6.108;2022-12-07T20:58:03;3.60;;;1.02;;
76955;SDS011;65894;53.206;-6.108;2022-12-07T21:00:29;3.78;;;1.00;;
76955;SDS011;65894;53.206;-6.108;2022-12-07T21:02:54;7.45;;;1.33;;
76955;SDS011;65894;53.206;-6.108;2022-12-07T21:05:21;4.85;;;1.13;;
76955;SDS011;65894;53.206;-6.108;2022-12-07T21:07:48;3.55;;;1.08;;
76955;SDS011;65894;53.206;-6.108;2022-12-07T21:10:13;4.47;;;1.30;;
76955;SDS011;65894;53.206;-6.108;2022-12-07T21:12:39;4.65;;;1.10;;
76955;SDS011;65894;53.206;-6.108;2022-12-07T21:15:05;6.03;;;1.20;;
76955;SDS011;65894;53.206;-6.108;2022-12-07T21:17:31;5.90;;;1.20;;
76955;SDS011;65894;53.206;-6.108;2022-12-07T21:19:56;4.60;;;1.23;;
76955;SDS011;65894;53.206;-6.108;2022-12-07T21:22:26;5.03;;;1.17;;
76955;SDS011;65894;53.206;-6.108;2022-12-07T21:24:52;4.18;;;1.42;;
76955;SDS011;65894;53.206;-6.108;2022-12-07T21:27:18;3.92;;;1.13;;
76955;SDS011;65894;53.206;-6.108;2022-12-07T21:29:43;3.50;;;1.35;;
76955;SDS011;65894;53.206;-6.108;2022-12-07T21:32:09;5.68;;;1.40;;
76955;SDS011;65894;53.206;-6.108;2022-12-07T21:34:35;4.80;;;1.30;;
76955;SDS011;65894;53.206;-6.108;2022-12-07T21:37:01;5.32;;;1.15;;
76955;SDS011;65894;53.206;-6.108;2022-12-07T21:39:26;5.88;;;1.20;;
76955;SDS011;65894;53.206;-6.108;2022-12-07T21:41:52;6.22;;;1.20;;
76955;SDS011;65894;53.206;-6.108;2022-12-07T21:44:17;3.83;;;1.30;;
76955;SDS011;65894;53.206;-6.108;2022-12-07T21:46:43;4.88;;;1.10;;
76955;SDS011;65894;53.206;-6.108;2022-12-07T21:49:12;4.03;;;1.05;;
76955;SDS011;65894;53.206;-6.108;2022-12-07T21:51:40;3.75;;;1.30;;
76955;SDS011;65894;53.206;-6.108;2022-12-07T21:54:07;4.53;;;1.05;;
76955;SDS011;65894;53.206;-6.108;2022-12-07T21:56:36;4.80;;;1.33;;
76955;SDS011;65894;53.206;-6.108;2022-12-07T21:59:04;2.55;;;1.08;;
76955;SDS011;65894;53.206;-6.108;2022-12-07T22:01:31;5.35;;;1.30;;
76955;SDS011;65894;53.206;-6.108;2022-12-07T22:04:03;4.15;;;1.20;;
76955;SDS011;65894;53.206;-6.108;2022-12-07T22:06:31;4.63;;;1.20;;
76955;SDS011;65894;53.206;-6.108;2022-12-07T22:08:57;4.38;;;1.30;;
76955;SDS011;65894;53.206;-6.108;2022-12-07T22:11:23;4.32;;;1.20;;
76955;SDS011;65894;53.206;-6.108;2022-12-07T22:13:48;4.35;;;1.17;;
76955;SDS011;65894;53.206;-6.108;2022-12-07T22:16:32;3.97;;;1.00;;
76955;SDS011;65894;53.206;-6.108;2022-12-07T22:18:59;5.15;;;1.10;;
76955;SDS011;65894;53.206;-6.108;2022-12-07T22:21:25;2.22;;;1.10;;
76955;SDS011;65894;53.206;-6.108;2022-12-07T22:23:51;4.30;;;1.10;;
76955;SDS011;65894;53.206;-6.108;2022-12-07T22:26:17;3.05;;;0.98;;
76955;SDS011;65894;53.206;-6.108;2022-12-07T22:28:43;4.05;;;1.20;;
76955;SDS011;65894;53.206;-6.108;2022-12-07T22:31:11;3.30;;;1.10;;
76955;SDS011;65894;53.206;-6.108;2022-12-07T22:33:38;3.28;;;1.00;;
76955;SDS011;65894;53.206;-6.108;2022-12-07T22:36:04;4.43;;;1.50;;
76955;SDS011;65894;53.206;-6.108;2022-12-07T22:38:30;3.20;;;1.08;;
76955;SDS011;65894;53.206;-6.108;2022-12-07T22:40:57;4.78;;;1.10;;
76955;SDS011;65894;53.206;-6.108;2022-12-07T22:43:25;3.28;;;1.00;;
76955;SDS011;65894;53.206;-6.108;2022-12-07T22:46:00;2.80;;;1.08;;
76955;SDS011;65894;53.206;-6.108;2022-12-07T22:48:25;3.67;;;1.10;;
76955;SDS011;65894;53.206;-6.108;2022-12-07T22:50:52;3.45;;;1.10;;
76955;SDS011;65894;53.206;-6.108;2022-12-07T22:53:18;2.95;;;0.93;;
76955;SDS011;65894;53.206;-6.108;2022-12-07T22:55:45;2.40;;;1.20;;
76955;SDS011;65894;53.206;-6.108;2022-12-07T22:58:10;3.40;;;1.08;;
76955;SDS011;65894;53.206;-6.108;2022-12-07T23:00:50;3.30;;;1.10;;
76955;SDS011;65894;53.206;-6.108;2022-12-07T23:03:16;3.40;;;1.10;;
76955;SDS011;65894;53.206;-6.108;2022-12-07T23:05:42;3.03;;;1.00;;
76955;SDS011;65894;53.206;-6.108;2022-12-07T23:08:09;3.60;;;1.10;;
76955;SDS011;65894;53.206;-6.108;2022-12-07T23:10:35;3.03;;;1.13;;
76955;SDS011;65894;53.206;-6.108;2022-12-07T23:13:06;3.13;;;1.00;;
76955;SDS011;65894;53.206;-6.108;2022-12-07T23:15:52;2.60;;;1.00;;
76955;SDS011;65894;53.206;-6.108;2022-12-07T23:18:17;2.50;;;0.90;;
76955;SDS011;65894;53.206;-6.108;2022-12-07T23:20:43;2.28;;;0.90;;
76955;SDS011;65894;53.206;-6.108;2022-12-07T23:23:08;3.00;;;1.10;;
76955;SDS011;65894;53.206;-6.108;2022-12-07T23:25:34;5.65;;;0.93;;
76955;SDS011;65894;53.206;-6.108;2022-12-07T23:27:59;4.53;;;1.02;;
76955;SDS011;65894;53.206;-6.108;2022-12-07T23:30:25;2.45;;;1.00;;
76955;SDS011;65894;53.206;-6.108;2022-12-07T23:32:50;3.22;;;1.05;;
76955;SDS011;65894;53.206;-6.108;2022-12-07T23:35:16;3.00;;;0.95;;
76955;SDS011;65894;53.206;-6.108;2022-12-07T23:37:41;4.50;;;1.25;;
76955;SDS011;65894;53.206;-6.108;2022-12-07T23:40:07;2.47;;;1.17;;
76955;SDS011;65894;53.206;-6.108;2022-12-07T23:42:33;2.13;;;0.90;;
76955;SDS011;65894;53.206;-6.108;2022-12-07T23:44:58;2.63;;;0.98;;
76955;SDS011;65894;53.206;-6.108;2022-12-07T23:47:24;3.97;;;1.10;;
76955;SDS011;65894;53.206;-6.108;2022-12-07T23:49:49;3.13;;;1.00;;
76955;SDS011;65894;53.206;-6.108;2022-12-07T23:52:15;1.65;;;0.80;;
76955;SDS011;65894;53.206;-6.108;2022-12-07T23:54:40;3.25;;;1.05;;
76955;SDS011;65894;53.206;-6.108;2022-12-07T23:57:06;3.67;;;1.00;;
76955;SDS011;65894;53.206;-6.108;2022-12-07T23:59:32;2.13;;;0.85;;
